»·PEaware :: N104MR O46-KSEA

N104MR :: O46-KSEA

FLIGHT INFORMATION

Flight Status: Arrived
Operator: Privately registered:
United States
More flights under this callsign
Pilot: Michael R. (16974)
Aircraft: BEECH AIRCRAFT BEECH AIRLINER
(B190)
More flights by this aircraft type
Origin: O46 Weed
United States
Destination: KSEA Seattle-Tacoma Intl
United States
More flights between these airports :: More routes between these airports
Route: LMT HAWKZ6 16R
File this flight plan on PilotEdge
Remarks:
Altitude:
(Current/Filed)
24,000ft
Speed:
(Current/Filed)
220kts
Departed: 16-Dec-17 08:36 PM
Arrived: 16-Dec-17 10:34 PM
Distance/Time
Traveled:
358nm/1:58
Distance/Time
To Go:
Arrived

Flight Plot

Page will automatically refresh every two minutes.

Flight plan parsing failed; only flown route is shown


Map Options




Map Legend


Flown Route
Filed Route
Departure Airport
Arrival Airport
Navaid (VOR, NDB)
Fix

Horizontal Profiles

Position Reports

Time Latitude Longitude Heading Altitude Ground
Speed
16-Dec-17 20:41 41.474732 -122.451290 335 2937ft 0kts
16-Dec-17 20:42 41.488378 -122.458768 336 3397ft 143kts
16-Dec-17 20:43 41.527223 -122.420425 57 5387ft 235kts
16-Dec-17 20:44 41.569580 -122.360982 36 7367ft 195kts
16-Dec-17 20:45 41.607195 -122.319407 33 9393ft 153kts
16-Dec-17 20:46 41.639004 -122.285194 32 11117ft 142kts
16-Dec-17 20:47 41.673393 -122.248509 33 11586ft 176kts
16-Dec-17 20:48 41.712555 -122.206358 34 11583ft 183kts
16-Dec-17 20:49 41.752269 -122.163476 34 11581ft 183kts
16-Dec-17 20:50 41.792135 -122.120409 33 11730ft 179kts
16-Dec-17 20:51 41.827109 -122.082345 31 13004ft 140kts
16-Dec-17 20:52 41.852195 -122.055054 28 14821ft 103kts
16-Dec-17 20:53 41.875193 -122.030632 28 16458ft 113kts
16-Dec-17 20:54 41.899910 -122.003855 27 18417ft 116kts
16-Dec-17 20:55 41.924957 -121.976711 25 20332ft 120kts
16-Dec-17 20:56 41.951387 -121.948049 24 22113ft 126kts
16-Dec-17 20:57 41.977964 -121.918996 22 23898ft 117kts
16-Dec-17 20:58 41.995344 -121.900886 25 24026ft 162kts
16-Dec-17 20:59 42.033531 -121.884183 332 23528ft 135kts
16-Dec-17 21:00 42.059424 -121.880505 44 23964ft 118kts
16-Dec-17 21:01 42.086915 -121.859120 348 24379ft 142kts
16-Dec-17 21:02 42.116842 -121.804496 47 24320ft 219kts
16-Dec-17 21:03 42.152985 -121.736870 15 24020ft 209kts
16-Dec-17 21:04 42.208339 -121.741764 352 24016ft 202kts
16-Dec-17 21:05 42.264589 -121.753027 350 24004ft 210kts
16-Dec-17 21:06 42.323238 -121.766101 349 24013ft 216kts
16-Dec-17 21:07 42.382939 -121.779687 349 24010ft 218kts
16-Dec-17 21:08 42.442676 -121.793328 349 24027ft 218kts
16-Dec-17 21:09 42.502544 -121.806998 349 24026ft 219kts
16-Dec-17 21:10 42.563352 -121.820908 349 24020ft 224kts
16-Dec-17 21:11 42.625199 -121.835102 349 24024ft 226kts
16-Dec-17 21:12 42.686988 -121.849303 349 24024ft 226kts
16-Dec-17 21:13 42.748893 -121.863565 349 24023ft 226kts
16-Dec-17 21:14 42.810932 -121.877875 349 24020ft 227kts
16-Dec-17 21:15 42.873389 -121.892336 349 24022ft 228kts
16-Dec-17 21:16 42.935754 -121.906776 349 24019ft 228kts
16-Dec-17 21:17 42.998076 -121.921279 349 24019ft 228kts
16-Dec-17 21:18 43.059656 -121.935578 349 24017ft 219kts
16-Dec-17 21:19 43.117086 -121.948988 349 24034ft 214kts
16-Dec-17 21:20 43.175332 -121.962608 349 24144ft 211kts
16-Dec-17 21:21 43.233219 -121.976118 349 24148ft 210kts
16-Dec-17 21:22 43.289001 -121.989262 348 24150ft 204kts
16-Dec-17 21:23 43.346017 -122.002649 348 24149ft 210kts
16-Dec-17 21:24 43.404350 -122.016387 348 24052ft 214kts
16-Dec-17 21:25 43.463004 -122.030216 348 24054ft 213kts
16-Dec-17 21:26 43.521334 -122.044000 348 24051ft 213kts
16-Dec-17 21:27 43.579770 -122.057837 348 24049ft 213kts
16-Dec-17 21:28 43.637921 -122.071635 348 24067ft 212kts
16-Dec-17 21:29 43.696152 -122.085479 348 24068ft 212kts
16-Dec-17 21:30 43.754394 -122.099335 348 24064ft 212kts
16-Dec-17 21:31 43.812578 -122.113229 348 24066ft 213kts
16-Dec-17 21:32 43.870297 -122.129470 350 24064ft 214kts
16-Dec-17 21:33 43.928947 -122.141556 349 24063ft 213kts
16-Dec-17 21:34 43.987432 -122.155230 348 24062ft 213kts
16-Dec-17 21:35 44.045926 -122.169238 348 24060ft 213kts
16-Dec-17 21:36 44.103046 -122.182988 348 24060ft 213kts
16-Dec-17 21:37 44.160734 -122.196925 348 24071ft 215kts
16-Dec-17 21:38 44.219596 -122.211166 348 24069ft 216kts
16-Dec-17 21:39 44.278647 -122.225433 348 24069ft 216kts
16-Dec-17 21:40 44.338030 -122.239914 348 24070ft 217kts
16-Dec-17 21:41 44.396710 -122.254134 347 24139ft 216kts
16-Dec-17 21:42 44.456100 -122.268689 347 24139ft 219kts
16-Dec-17 21:43 44.516599 -122.283502 347 24018ft 224kts
16-Dec-17 21:44 44.577542 -122.298434 347 23984ft 222kts
16-Dec-17 21:45 44.638284 -122.313341 347 23981ft 221kts
16-Dec-17 21:46 44.697236 -122.327849 347 23983ft 220kts
16-Dec-17 21:47 44.757452 -122.342691 347 23981ft 220kts
16-Dec-17 21:48 44.817766 -122.357578 346 23981ft 220kts
16-Dec-17 21:49 44.878025 -122.372532 347 23977ft 220kts
16-Dec-17 21:50 44.938175 -122.387454 346 23980ft 220kts
16-Dec-17 21:51 44.998202 -122.402389 346 23996ft 219kts
16-Dec-17 21:52 45.058128 -122.417324 346 23997ft 220kts
16-Dec-17 21:53 45.115528 -122.431661 346 24005ft 220kts
16-Dec-17 21:54 45.175410 -122.446643 346 24005ft 221kts
16-Dec-17 21:55 45.235920 -122.461819 346 24005ft 222kts
16-Dec-17 21:56 45.296326 -122.476962 346 24001ft 222kts
16-Dec-17 21:57 45.356926 -122.492262 346 24001ft 223kts
16-Dec-17 21:58 45.417772 -122.507622 346 23994ft 223kts
16-Dec-17 21:59 45.475427 -122.522210 346 23989ft 222kts
16-Dec-17 22:00 45.536339 -122.537661 346 23995ft 222kts
16-Dec-17 22:01 45.596896 -122.553044 346 23996ft 222kts
16-Dec-17 22:02 45.657396 -122.568457 346 23996ft 222kts
16-Dec-17 22:03 45.718081 -122.583941 346 23990ft 222kts
16-Dec-17 22:04 45.778886 -122.599149 346 23989ft 223kts
16-Dec-17 22:05 45.839935 -122.614275 346 23989ft 223kts
16-Dec-17 22:06 45.901119 -122.629428 346 23988ft 223kts
16-Dec-17 22:07 45.962473 -122.644517 345 23976ft 230kts
16-Dec-17 22:08 46.025124 -122.660229 344 23976ft 235kts
16-Dec-17 22:09 46.089886 -122.676370 344 23975ft 237kts
16-Dec-17 22:10 46.152452 -122.688970 346 23982ft 243kts
16-Dec-17 22:11 46.219819 -122.702295 346 23980ft 248kts
16-Dec-17 22:12 46.287838 -122.715617 345 24003ft 249kts
16-Dec-17 22:13 46.357801 -122.723510 351 24007ft 260kts
16-Dec-17 22:14 46.430313 -122.726146 351 24006ft 263kts
16-Dec-17 22:15 46.503046 -122.728759 351 23910ft 268kts
16-Dec-17 22:16 46.579196 -122.731551 352 21281ft 276kts
16-Dec-17 22:17 46.653895 -122.734239 352 18467ft 267kts
16-Dec-17 22:18 46.714676 -122.736414 353 15970ft 258kts
16-Dec-17 22:19 46.791514 -122.728392 26 13139ft 243kts
16-Dec-17 22:20 46.841223 -122.671559 28 12073ft 220kts
16-Dec-17 22:21 46.884027 -122.623363 28 12005ft 242kts
16-Dec-17 22:22 46.937657 -122.563151 19 11976ft 240kts
16-Dec-17 22:23 47.011687 -122.529750 9 10823ft 234kts
16-Dec-17 22:24 47.063055 -122.507345 9 10042ft 230kts
16-Dec-17 22:25 47.119661 -122.492923 359 10015ft 207kts
16-Dec-17 22:26 47.176305 -122.482614 359 10017ft 204kts
16-Dec-17 22:27 47.234572 -122.473358 359 9420ft 219kts
16-Dec-17 22:28 47.296101 -122.463907 358 8575ft 231kts
16-Dec-17 22:29 47.360046 -122.455169 353 7899ft 226kts
16-Dec-17 22:30 47.422904 -122.455280 352 7017ft 219kts
16-Dec-17 22:31 47.484215 -122.455377 353 6184ft 226kts
16-Dec-17 22:32 47.540900 -122.455389 352 5106ft 186kts
16-Dec-17 22:33 47.590920 -122.440590 22 3564ft 197kts
16-Dec-17 22:34 47.637083 -122.408432 50 2232ft 170kts
16-Dec-17 22:35 47.621846 -122.366865 156 2033ft 130kts
16-Dec-17 22:36 47.588564 -122.342758 157 2139ft 150kts
16-Dec-17 22:37 47.550071 -122.318151 172 2026ft 156kts
16-Dec-17 22:38 47.505574 -122.317451 180 1188ft 150kts
16-Dec-17 22:39 47.468752 -122.317958 177 480ft 99kts
16-Dec-17 22:40 47.456253 -122.317905 179 339ft 23kts
16-Dec-17 22:41 47.448043 -122.316788 151 371ft 22kts
16-Dec-17 22:42 47.446598 -122.314621 118 377ft 0kts
16-Dec-17 22:43 47.446220 -122.311003 123 388ft 25kts
16-Dec-17 22:44 47.441592 -122.306305 180 378ft 17kts
16-Dec-17 22:45 47.437273 -122.304961 95 361ft 17kts
16-Dec-17 22:46 47.436458 -122.303059 211 359ft 0kts
16-Dec-17 22:47 47.436458 -122.303059 211 359ft 0kts
16-Dec-17 22:48 47.436458 -122.303059 211 359ft 0kts
16-Dec-17 22:49 47.436458 -122.303059 211 359ft 0kts
16-Dec-17 22:50 47.436458 -122.303059 211 359ft 0kts
16-Dec-17 22:51 47.436458 -122.303059 211 359ft 0kts
16-Dec-17 22:52 47.436458 -122.303059 211 359ft 0kts
16-Dec-17 22:53 47.436458 -122.303059 211 359ft 0kts
16-Dec-17 22:54 47.436458 -122.303059 211 359ft 0kts

Navigation Log

Ident Type
Flight plan parsing failed, navigation log unavailable